sensor_id;sensor_type;location;lat;lon;timestamp;P1;durP1;ratioP1;P2;durP2;ratioP2
17251;SDS011;8742;51.716;8.790;2024-03-25T00:02:18;17.37;;;3.73;;
17251;SDS011;8742;51.716;8.790;2024-03-25T00:04:44;15.63;;;3.30;;
17251;SDS011;8742;51.716;8.790;2024-03-25T00:07:22;18.37;;;3.57;;
17251;SDS011;8742;51.716;8.790;2024-03-25T00:09:48;10.87;;;3.20;;
17251;SDS011;8742;51.716;8.790;2024-03-25T00:12:14;11.33;;;2.40;;
17251;SDS011;8742;51.716;8.790;2024-03-25T00:14:40;10.10;;;3.00;;
17251;SDS011;8742;51.716;8.790;2024-03-25T00:17:07;6.47;;;2.23;;
17251;SDS011;8742;51.716;8.790;2024-03-25T00:19:37;12.17;;;2.80;;
17251;SDS011;8742;51.716;8.790;2024-03-25T00:22:04;12.37;;;3.50;;
17251;SDS011;8742;51.716;8.790;2024-03-25T00:24:30;12.23;;;3.30;;
17251;SDS011;8742;51.716;8.790;2024-03-25T00:26:57;10.17;;;2.97;;
17251;SDS011;8742;51.716;8.790;2024-03-25T00:29:22;16.10;;;3.67;;
17251;SDS011;8742;51.716;8.790;2024-03-25T00:31:49;14.53;;;3.60;;
17251;SDS011;8742;51.716;8.790;2024-03-25T00:34:15;12.87;;;3.60;;
17251;SDS011;8742;51.716;8.790;2024-03-25T00:36:55;15.57;;;3.70;;
17251;SDS011;8742;51.716;8.790;2024-03-25T00:39:21;15.37;;;3.93;;
17251;SDS011;8742;51.716;8.790;2024-03-25T00:41:48;20.27;;;4.50;;
17251;SDS011;8742;51.716;8.790;2024-03-25T00:44:14;18.47;;;4.70;;
17251;SDS011;8742;51.716;8.790;2024-03-25T00:46:41;18.30;;;4.43;;
17251;SDS011;8742;51.716;8.790;2024-03-25T00:49:07;19.07;;;4.93;;
17251;SDS011;8742;51.716;8.790;2024-03-25T00:51:34;20.60;;;4.63;;
17251;SDS011;8742;51.716;8.790;2024-03-25T00:54:02;29.20;;;5.20;;
17251;SDS011;8742;51.716;8.790;2024-03-25T00:56:29;18.33;;;5.10;;
17251;SDS011;8742;51.716;8.790;2024-03-25T00:58:55;26.13;;;5.07;;
17251;SDS011;8742;51.716;8.790;2024-03-25T01:01:30;22.83;;;5.07;;
17251;SDS011;8742;51.716;8.790;2024-03-25T01:03:56;28.47;;;5.63;;
17251;SDS011;8742;51.716;8.790;2024-03-25T01:06:23;27.87;;;5.23;;
17251;SDS011;8742;51.716;8.790;2024-03-25T01:08:49;21.50;;;5.27;;
17251;SDS011;8742;51.716;8.790;2024-03-25T01:11:18;20.27;;;5.33;;
17251;SDS011;8742;51.716;8.790;2024-03-25T01:13:44;17.33;;;5.47;;
17251;SDS011;8742;51.716;8.790;2024-03-25T01:16:11;21.27;;;5.17;;
17251;SDS011;8742;51.716;8.790;2024-03-25T01:18:37;25.20;;;5.07;;
17251;SDS011;8742;51.716;8.790;2024-03-25T01:21:04;18.17;;;4.47;;
17251;SDS011;8742;51.716;8.790;2024-03-25T01:23:30;17.30;;;4.73;;
17251;SDS011;8742;51.716;8.790;2024-03-25T01:25:57;23.53;;;5.50;;
17251;SDS011;8742;51.716;8.790;2024-03-25T01:28:24;33.23;;;5.93;;
17251;SDS011;8742;51.716;8.790;2024-03-25T01:30:52;32.33;;;5.83;;
17251;SDS011;8742;51.716;8.790;2024-03-25T01:33:18;21.27;;;5.30;;
17251;SDS011;8742;51.716;8.790;2024-03-25T01:35:54;22.87;;;5.03;;
17251;SDS011;8742;51.716;8.790;2024-03-25T01:38:20;29.07;;;5.53;;
17251;SDS011;8742;51.716;8.790;2024-03-25T01:40:47;28.93;;;5.03;;
17251;SDS011;8742;51.716;8.790;2024-03-25T01:43:14;16.13;;;4.33;;
17251;SDS011;8742;51.716;8.790;2024-03-25T01:45:42;30.30;;;5.53;;
17251;SDS011;8742;51.716;8.790;2024-03-25T01:48:08;22.50;;;5.63;;
17251;SDS011;8742;51.716;8.790;2024-03-25T01:50:39;26.63;;;4.97;;
17251;SDS011;8742;51.716;8.790;2024-03-25T01:53:08;21.53;;;5.20;;
17251;SDS011;8742;51.716;8.790;2024-03-25T01:55:37;20.67;;;4.77;;
17251;SDS011;8742;51.716;8.790;2024-03-25T01:58:04;17.20;;;5.17;;
17251;SDS011;8742;51.716;8.790;2024-03-25T02:00:34;21.93;;;4.70;;
17251;SDS011;8742;51.716;8.790;2024-03-25T02:03:02;13.70;;;3.93;;
17251;SDS011;8742;51.716;8.790;2024-03-25T02:05:30;22.70;;;4.23;;
17251;SDS011;8742;51.716;8.790;2024-03-25T02:07:57;19.53;;;4.23;;
17251;SDS011;8742;51.716;8.790;2024-03-25T02:10:25;13.20;;;3.63;;
17251;SDS011;8742;51.716;8.790;2024-03-25T02:12:52;19.20;;;4.67;;
17251;SDS011;8742;51.716;8.790;2024-03-25T02:15:20;15.10;;;4.17;;
17251;SDS011;8742;51.716;8.790;2024-03-25T02:17:46;15.50;;;4.30;;
17251;SDS011;8742;51.716;8.790;2024-03-25T02:20:14;13.30;;;4.17;;
17251;SDS011;8742;51.716;8.790;2024-03-25T02:22:41;22.93;;;4.67;;
17251;SDS011;8742;51.716;8.790;2024-03-25T02:25:08;19.00;;;5.37;;
17251;SDS011;8742;51.716;8.790;2024-03-25T02:27:39;15.67;;;4.00;;
17251;SDS011;8742;51.716;8.790;2024-03-25T02:30:07;19.07;;;5.27;;
17251;SDS011;8742;51.716;8.790;2024-03-25T02:32:34;19.87;;;5.27;;
17251;SDS011;8742;51.716;8.790;2024-03-25T02:35:02;18.13;;;5.67;;
17251;SDS011;8742;51.716;8.790;2024-03-25T02:37:30;21.07;;;4.80;;
17251;SDS011;8742;51.716;8.790;2024-03-25T02:39:59;28.07;;;5.47;;
17251;SDS011;8742;51.716;8.790;2024-03-25T02:42:27;22.47;;;5.50;;
17251;SDS011;8742;51.716;8.790;2024-03-25T02:44:55;19.83;;;5.73;;
17251;SDS011;8742;51.716;8.790;2024-03-25T02:47:22;36.57;;;5.73;;
17251;SDS011;8742;51.716;8.790;2024-03-25T02:49:49;14.07;;;4.63;;
17251;SDS011;8742;51.716;8.790;2024-03-25T02:52:16;26.77;;;5.83;;
17251;SDS011;8742;51.716;8.790;2024-03-25T02:54:47;23.47;;;5.77;;
17251;SDS011;8742;51.716;8.790;2024-03-25T02:57:14;23.23;;;5.83;;
17251;SDS011;8742;51.716;8.790;2024-03-25T02:59:40;13.67;;;5.13;;
17251;SDS011;8742;51.716;8.790;2024-03-25T03:02:08;28.40;;;5.70;;
17251;SDS011;8742;51.716;8.790;2024-03-25T03:04:34;20.73;;;6.20;;
17251;SDS011;8742;51.716;8.790;2024-03-25T03:07:01;20.50;;;5.57;;
17251;SDS011;8742;51.716;8.790;2024-03-25T03:09:27;20.97;;;5.60;;
17251;SDS011;8742;51.716;8.790;2024-03-25T03:11:54;21.13;;;5.83;;
17251;SDS011;8742;51.716;8.790;2024-03-25T03:14:20;26.23;;;6.17;;
17251;SDS011;8742;51.716;8.790;2024-03-25T03:16:47;20.10;;;5.57;;
17251;SDS011;8742;51.716;8.790;2024-03-25T03:19:15;19.13;;;4.90;;
17251;SDS011;8742;51.716;8.790;2024-03-25T03:21:42;27.33;;;5.13;;
17251;SDS011;8742;51.716;8.790;2024-03-25T03:24:08;28.60;;;4.93;;
17251;SDS011;8742;51.716;8.790;2024-03-25T03:26:35;26.57;;;5.40;;
17251;SDS011;8742;51.716;8.790;2024-03-25T03:29:04;24.03;;;5.60;;
17251;SDS011;8742;51.716;8.790;2024-03-25T03:31:31;24.03;;;5.80;;
17251;SDS011;8742;51.716;8.790;2024-03-25T03:33:56;22.17;;;6.07;;
17251;SDS011;8742;51.716;8.790;2024-03-25T03:36:32;27.20;;;6.33;;
17251;SDS011;8742;51.716;8.790;2024-03-25T03:38:58;20.40;;;5.37;;
17251;SDS011;8742;51.716;8.790;2024-03-25T03:41:25;32.97;;;6.63;;
17251;SDS011;8742;51.716;8.790;2024-03-25T03:43:51;21.43;;;6.63;;
17251;SDS011;8742;51.716;8.790;2024-03-25T03:46:17;30.63;;;6.43;;
17251;SDS011;8742;51.716;8.790;2024-03-25T03:48:43;18.23;;;6.50;;
17251;SDS011;8742;51.716;8.790;2024-03-25T03:51:10;19.53;;;6.50;;
17251;SDS011;8742;51.716;8.790;2024-03-25T03:53:38;22.17;;;6.87;;
17251;SDS011;8742;51.716;8.790;2024-03-25T03:56:05;22.40;;;6.63;;
17251;SDS011;8742;51.716;8.790;2024-03-25T03:58:31;26.77;;;7.07;;
17251;SDS011;8742;51.716;8.790;2024-03-25T04:00:58;29.40;;;7.20;;
17251;SDS011;8742;51.716;8.790;2024-03-25T04:03:25;35.30;;;7.23;;
17251;SDS011;8742;51.716;8.790;2024-03-25T04:05:52;22.43;;;6.93;;
17251;SDS011;8742;51.716;8.790;2024-03-25T04:08:18;29.03;;;6.83;;
17251;SDS011;8742;51.716;8.790;2024-03-25T04:10:46;24.00;;;7.10;;
17251;SDS011;8742;51.716;8.790;2024-03-25T04:13:12;29.87;;;6.90;;
17251;SDS011;8742;51.716;8.790;2024-03-25T04:15:39;27.67;;;6.90;;
17251;SDS011;8742;51.716;8.790;2024-03-25T04:18:07;37.20;;;8.37;;
17251;SDS011;8742;51.716;8.790;2024-03-25T04:20:36;28.90;;;7.37;;
17251;SDS011;8742;51.716;8.790;2024-03-25T04:23:02;39.90;;;7.83;;
17251;SDS011;8742;51.716;8.790;2024-03-25T04:25:32;21.10;;;6.87;;
17251;SDS011;8742;51.716;8.790;2024-03-25T04:27:59;26.67;;;7.30;;
17251;SDS011;8742;51.716;8.790;2024-03-25T04:30:26;29.60;;;7.43;;
17251;SDS011;8742;51.716;8.790;2024-03-25T04:32:52;26.83;;;7.60;;
17251;SDS011;8742;51.716;8.790;2024-03-25T04:35:19;28.70;;;7.33;;
17251;SDS011;8742;51.716;8.790;2024-03-25T04:37:45;31.23;;;7.43;;
17251;SDS011;8742;51.716;8.790;2024-03-25T04:40:12;34.80;;;8.13;;
17251;SDS011;8742;51.716;8.790;2024-03-25T04:42:38;27.67;;;8.43;;
17251;SDS011;8742;51.716;8.790;2024-03-25T04:45:06;33.40;;;7.77;;
17251;SDS011;8742;51.716;8.790;2024-03-25T04:47:32;28.63;;;7.40;;
17251;SDS011;8742;51.716;8.790;2024-03-25T04:49:58;29.90;;;8.07;;
17251;SDS011;8742;51.716;8.790;2024-03-25T04:52:24;42.47;;;8.33;;
17251;SDS011;8742;51.716;8.790;2024-03-25T04:54:50;25.37;;;7.43;;
17251;SDS011;8742;51.716;8.790;2024-03-25T04:57:16;21.53;;;7.00;;
17251;SDS011;8742;51.716;8.790;2024-03-25T04:59:42;25.67;;;7.27;;
17251;SDS011;8742;51.716;8.790;2024-03-25T05:02:09;21.53;;;6.90;;
17251;SDS011;8742;51.716;8.790;2024-03-25T05:04:35;26.20;;;6.80;;
17251;SDS011;8742;51.716;8.790;2024-03-25T05:07:01;31.07;;;7.10;;
17251;SDS011;8742;51.716;8.790;2024-03-25T05:09:27;25.27;;;6.57;;
17251;SDS011;8742;51.716;8.790;2024-03-25T05:11:53;28.40;;;7.57;;
17251;SDS011;8742;51.716;8.790;2024-03-25T05:14:19;22.33;;;6.67;;
17251;SDS011;8742;51.716;8.790;2024-03-25T05:16:45;20.63;;;6.50;;
17251;SDS011;8742;51.716;8.790;2024-03-25T05:19:13;23.87;;;7.30;;
17251;SDS011;8742;51.716;8.790;2024-03-25T05:21:38;24.43;;;6.30;;
17251;SDS011;8742;51.716;8.790;2024-03-25T05:24:04;24.33;;;6.87;;
17251;SDS011;8742;51.716;8.790;2024-03-25T05:26:31;34.23;;;6.87;;
17251;SDS011;8742;51.716;8.790;2024-03-25T05:28:57;28.50;;;6.50;;
17251;SDS011;8742;51.716;8.790;2024-03-25T05:31:23;24.70;;;6.23;;
17251;SDS011;8742;51.716;8.790;2024-03-25T05:33:49;22.37;;;6.07;;
17251;SDS011;8742;51.716;8.790;2024-03-25T05:36:16;18.27;;;6.67;;
17251;SDS011;8742;51.716;8.790;2024-03-25T05:38:42;26.27;;;6.47;;
17251;SDS011;8742;51.716;8.790;2024-03-25T05:41:08;28.00;;;6.37;;
17251;SDS011;8742;51.716;8.790;2024-03-25T05:43:35;27.57;;;6.57;;
17251;SDS011;8742;51.716;8.790;2024-03-25T05:46:01;40.17;;;7.07;;
17251;SDS011;8742;51.716;8.790;2024-03-25T05:48:27;33.67;;;6.63;;
17251;SDS011;8742;51.716;8.790;2024-03-25T05:50:57;26.83;;;6.73;;
17251;SDS011;8742;51.716;8.790;2024-03-25T05:53:25;31.73;;;6.50;;
17251;SDS011;8742;51.716;8.790;2024-03-25T05:55:52;20.57;;;6.30;;
17251;SDS011;8742;51.716;8.790;2024-03-25T05:58:18;23.37;;;5.73;;
17251;SDS011;8742;51.716;8.790;2024-03-25T06:00:46;17.73;;;6.53;;
17251;SDS011;8742;51.716;8.790;2024-03-25T06:03:12;19.83;;;6.50;;
17251;SDS011;8742;51.716;8.790;2024-03-25T06:05:38;18.27;;;6.03;;
17251;SDS011;8742;51.716;8.790;2024-03-25T06:08:05;23.70;;;6.70;;
17251;SDS011;8742;51.716;8.790;2024-03-25T06:10:36;28.90;;;6.30;;
17251;SDS011;8742;51.716;8.790;2024-03-25T06:13:02;20.57;;;6.20;;
17251;SDS011;8742;51.716;8.790;2024-03-25T06:15:28;23.37;;;6.23;;
17251;SDS011;8742;51.716;8.790;2024-03-25T06:17:54;22.20;;;5.57;;
17251;SDS011;8742;51.716;8.790;2024-03-25T06:20:20;26.90;;;6.20;;
17251;SDS011;8742;51.716;8.790;2024-03-25T06:22:46;28.47;;;6.27;;
17251;SDS011;8742;51.716;8.790;2024-03-25T06:25:12;27.20;;;6.73;;
17251;SDS011;8742;51.716;8.790;2024-03-25T06:27:39;25.70;;;6.77;;
17251;SDS011;8742;51.716;8.790;2024-03-25T06:30:06;24.03;;;6.83;;
17251;SDS011;8742;51.716;8.790;2024-03-25T06:32:51;33.43;;;7.07;;
17251;SDS011;8742;51.716;8.790;2024-03-25T06:35:35;32.97;;;7.90;;
17251;SDS011;8742;51.716;8.790;2024-03-25T06:38:01;26.63;;;8.10;;
17251;SDS011;8742;51.716;8.790;2024-03-25T06:40:27;29.57;;;9.73;;
17251;SDS011;8742;51.716;8.790;2024-03-25T06:42:55;31.93;;;8.50;;
17251;SDS011;8742;51.716;8.790;2024-03-25T06:45:20;33.27;;;9.03;;
17251;SDS011;8742;51.716;8.790;2024-03-25T06:47:46;32.17;;;10.40;;
17251;SDS011;8742;51.716;8.790;2024-03-25T06:50:12;35.97;;;10.23;;
17251;SDS011;8742;51.716;8.790;2024-03-25T06:52:38;30.67;;;10.60;;
17251;SDS011;8742;51.716;8.790;2024-03-25T06:55:04;40.97;;;12.13;;
17251;SDS011;8742;51.716;8.790;2024-03-25T06:57:31;31.43;;;11.97;;
17251;SDS011;8742;51.716;8.790;2024-03-25T06:59:58;32.80;;;11.67;;
17251;SDS011;8742;51.716;8.790;2024-03-25T07:02:24;41.07;;;12.73;;
17251;SDS011;8742;51.716;8.790;2024-03-25T07:04:50;32.87;;;12.60;;
17251;SDS011;8742;51.716;8.790;2024-03-25T07:07:16;37.37;;;13.70;;
17251;SDS011;8742;51.716;8.790;2024-03-25T07:09:42;41.17;;;13.47;;
17251;SDS011;8742;51.716;8.790;2024-03-25T07:12:08;45.50;;;13.97;;
17251;SDS011;8742;51.716;8.790;2024-03-25T07:14:34;49.90;;;14.10;;
17251;SDS011;8742;51.716;8.790;2024-03-25T07:17:01;41.50;;;13.43;;
17251;SDS011;8742;51.716;8.790;2024-03-25T07:19:28;33.80;;;13.83;;
17251;SDS011;8742;51.716;8.790;2024-03-25T07:21:53;33.70;;;13.63;;
17251;SDS011;8742;51.716;8.790;2024-03-25T07:24:19;39.53;;;12.83;;
17251;SDS011;8742;51.716;8.790;2024-03-25T07:26:45;31.33;;;10.33;;
17251;SDS011;8742;51.716;8.790;2024-03-25T07:29:11;35.20;;;10.30;;
17251;SDS011;8742;51.716;8.790;2024-03-25T07:31:37;31.37;;;11.57;;
17251;SDS011;8742;51.716;8.790;2024-03-25T07:34:05;31.20;;;10.00;;
17251;SDS011;8742;51.716;8.790;2024-03-25T07:36:31;36.83;;;11.17;;
17251;SDS011;8742;51.716;8.790;2024-03-25T07:38:56;24.03;;;9.60;;
17251;SDS011;8742;51.716;8.790;2024-03-25T07:41:22;26.73;;;9.87;;
17251;SDS011;8742;51.716;8.790;2024-03-25T07:43:48;32.40;;;8.23;;
17251;SDS011;8742;51.716;8.790;2024-03-25T07:46:14;29.10;;;10.93;;
17251;SDS011;8742;51.716;8.790;2024-03-25T07:48:40;34.37;;;10.80;;
17251;SDS011;8742;51.716;8.790;2024-03-25T07:51:08;30.60;;;10.03;;
17251;SDS011;8742;51.716;8.790;2024-03-25T07:53:33;27.03;;;8.93;;
17251;SDS011;8742;51.716;8.790;2024-03-25T07:55:59;23.37;;;8.87;;
17251;SDS011;8742;51.716;8.790;2024-03-25T07:58:25;25.03;;;9.33;;
17251;SDS011;8742;51.716;8.790;2024-03-25T08:00:51;23.30;;;8.77;;
17251;SDS011;8742;51.716;8.790;2024-03-25T08:03:17;24.87;;;7.73;;
17251;SDS011;8742;51.716;8.790;2024-03-25T08:05:43;21.33;;;5.77;;
17251;SDS011;8742;51.716;8.790;2024-03-25T08:08:10;22.63;;;5.30;;
17251;SDS011;8742;51.716;8.790;2024-03-25T08:10:36;12.90;;;4.70;;
17251;SDS011;8742;51.716;8.790;2024-03-25T08:13:03;12.50;;;3.87;;
17251;SDS011;8742;51.716;8.790;2024-03-25T08:15:29;11.07;;;4.43;;
17251;SDS011;8742;51.716;8.790;2024-03-25T08:17:55;13.97;;;4.50;;
17251;SDS011;8742;51.716;8.790;2024-03-25T08:20:21;20.37;;;5.20;;
17251;SDS011;8742;51.716;8.790;2024-03-25T08:22:48;16.23;;;5.53;;
17251;SDS011;8742;51.716;8.790;2024-03-25T08:25:15;11.43;;;4.63;;
17251;SDS011;8742;51.716;8.790;2024-03-25T08:27:41;16.47;;;5.40;;
17251;SDS011;8742;51.716;8.790;2024-03-25T08:30:08;17.60;;;5.63;;
17251;SDS011;8742;51.716;8.790;2024-03-25T08:32:35;22.63;;;5.63;;
17251;SDS011;8742;51.716;8.790;2024-03-25T08:35:01;17.13;;;5.63;;
17251;SDS011;8742;51.716;8.790;2024-03-25T08:37:27;21.63;;;6.00;;
17251;SDS011;8742;51.716;8.790;2024-03-25T08:39:53;20.40;;;6.83;;
17251;SDS011;8742;51.716;8.790;2024-03-25T08:42:20;15.87;;;6.57;;
17251;SDS011;8742;51.716;8.790;2024-03-25T08:44:46;17.00;;;6.50;;
17251;SDS011;8742;51.716;8.790;2024-03-25T08:47:12;20.17;;;6.60;;
17251;SDS011;8742;51.716;8.790;2024-03-25T08:49:38;28.83;;;8.43;;
17251;SDS011;8742;51.716;8.790;2024-03-25T08:52:04;22.47;;;8.30;;
17251;SDS011;8742;51.716;8.790;2024-03-25T08:54:30;26.23;;;9.40;;
17251;SDS011;8742;51.716;8.790;2024-03-25T08:56:56;27.93;;;9.13;;
17251;SDS011;8742;51.716;8.790;2024-03-25T08:59:23;29.87;;;10.67;;
17251;SDS011;8742;51.716;8.790;2024-03-25T09:01:49;25.87;;;9.97;;
17251;SDS011;8742;51.716;8.790;2024-03-25T09:04:15;22.47;;;9.50;;
17251;SDS011;8742;51.716;8.790;2024-03-25T09:06:41;23.73;;;9.67;;
17251;SDS011;8742;51.716;8.790;2024-03-25T09:09:07;22.73;;;8.70;;
17251;SDS011;8742;51.716;8.790;2024-03-25T09:11:51;26.30;;;8.90;;
17251;SDS011;8742;51.716;8.790;2024-03-25T09:14:17;30.80;;;9.40;;
17251;SDS011;8742;51.716;8.790;2024-03-25T09:16:44;22.47;;;8.73;;
17251;SDS011;8742;51.716;8.790;2024-03-25T09:19:10;22.87;;;8.30;;
17251;SDS011;8742;51.716;8.790;2024-03-25T09:21:36;22.77;;;7.40;;
17251;SDS011;8742;51.716;8.790;2024-03-25T09:24:02;25.20;;;6.57;;
17251;SDS011;8742;51.716;8.790;2024-03-25T09:26:28;19.40;;;6.77;;
17251;SDS011;8742;51.716;8.790;2024-03-25T09:28:54;23.13;;;6.83;;
17251;SDS011;8742;51.716;8.790;2024-03-25T09:31:20;23.00;;;7.20;;
17251;SDS011;8742;51.716;8.790;2024-03-25T09:33:47;20.63;;;7.93;;
17251;SDS011;8742;51.716;8.790;2024-03-25T09:36:13;20.07;;;6.90;;
17251;SDS011;8742;51.716;8.790;2024-03-25T09:38:39;19.27;;;7.67;;
17251;SDS011;8742;51.716;8.790;2024-03-25T09:41:08;24.50;;;6.97;;
17251;SDS011;8742;51.716;8.790;2024-03-25T09:43:37;17.67;;;7.50;;
17251;SDS011;8742;51.716;8.790;2024-03-25T09:46:08;29.67;;;7.17;;
17251;SDS011;8742;51.716;8.790;2024-03-25T09:48:35;23.20;;;7.00;;
17251;SDS011;8742;51.716;8.790;2024-03-25T09:51:03;27.93;;;7.33;;
17251;SDS011;8742;51.716;8.790;2024-03-25T09:53:30;22.80;;;7.30;;
17251;SDS011;8742;51.716;8.790;2024-03-25T09:55:56;24.47;;;6.57;;
17251;SDS011;8742;51.716;8.790;2024-03-25T09:58:22;19.97;;;6.80;;
17251;SDS011;8742;51.716;8.790;2024-03-25T10:00:50;18.70;;;6.03;;
17251;SDS011;8742;51.716;8.790;2024-03-25T10:03:30;23.53;;;6.17;;
17251;SDS011;8742;51.716;8.790;2024-03-25T10:05:56;18.83;;;5.90;;
17251;SDS011;8742;51.716;8.790;2024-03-25T10:08:24;18.33;;;6.23;;
17251;SDS011;8742;51.716;8.790;2024-03-25T10:10:50;16.57;;;4.80;;
17251;SDS011;8742;51.716;8.790;2024-03-25T10:13:16;13.40;;;4.87;;
17251;SDS011;8742;51.716;8.790;2024-03-25T10:15:41;10.87;;;4.97;;
17251;SDS011;8742;51.716;8.790;2024-03-25T10:18:07;11.40;;;3.97;;
17251;SDS011;8742;51.716;8.790;2024-03-25T10:20:36;21.17;;;4.10;;
17251;SDS011;8742;51.716;8.790;2024-03-25T10:23:03;14.43;;;4.13;;
17251;SDS011;8742;51.716;8.790;2024-03-25T10:25:30;12.37;;;4.20;;
17251;SDS011;8742;51.716;8.790;2024-03-25T10:27:57;17.10;;;4.40;;
17251;SDS011;8742;51.716;8.790;2024-03-25T10:30:23;18.60;;;4.63;;
17251;SDS011;8742;51.716;8.790;2024-03-25T10:32:59;16.13;;;4.97;;
17251;SDS011;8742;51.716;8.790;2024-03-25T10:35:26;13.73;;;5.10;;
17251;SDS011;8742;51.716;8.790;2024-03-25T10:37:54;16.60;;;5.83;;
17251;SDS011;8742;51.716;8.790;2024-03-25T10:40:22;21.23;;;4.80;;
17251;SDS011;8742;51.716;8.790;2024-03-25T10:42:53;18.93;;;5.57;;
17251;SDS011;8742;51.716;8.790;2024-03-25T10:45:25;14.80;;;4.23;;
17251;SDS011;8742;51.716;8.790;2024-03-25T10:47:52;13.60;;;4.60;;
17251;SDS011;8742;51.716;8.790;2024-03-25T10:50:19;13.40;;;4.20;;
17251;SDS011;8742;51.716;8.790;2024-03-25T10:52:48;16.33;;;4.40;;
17251;SDS011;8742;51.716;8.790;2024-03-25T10:55:14;10.57;;;3.70;;
17251;SDS011;8742;51.716;8.790;2024-03-25T10:57:41;10.90;;;3.73;;
17251;SDS011;8742;51.716;8.790;2024-03-25T11:00:09;20.80;;;4.43;;
17251;SDS011;8742;51.716;8.790;2024-03-25T11:02:36;14.77;;;4.33;;
17251;SDS011;8742;51.716;8.790;2024-03-25T11:05:02;12.40;;;4.30;;
17251;SDS011;8742;51.716;8.790;2024-03-25T11:07:30;15.77;;;4.27;;
17251;SDS011;8742;51.716;8.790;2024-03-25T11:10:02;14.07;;;4.30;;
17251;SDS011;8742;51.716;8.790;2024-03-25T11:12:34;15.93;;;4.50;;
17251;SDS011;8742;51.716;8.790;2024-03-25T11:15:01;17.47;;;4.30;;
17251;SDS011;8742;51.716;8.790;2024-03-25T11:17:30;9.37;;;3.50;;
17251;SDS011;8742;51.716;8.790;2024-03-25T11:20:06;11.20;;;4.03;;
17251;SDS011;8742;51.716;8.790;2024-03-25T11:22:33;7.73;;;3.57;;
17251;SDS011;8742;51.716;8.790;2024-03-25T11:25:04;13.03;;;4.00;;
17251;SDS011;8742;51.716;8.790;2024-03-25T11:27:31;16.77;;;4.47;;
17251;SDS011;8742;51.716;8.790;2024-03-25T11:29:59;17.00;;;4.60;;
17251;SDS011;8742;51.716;8.790;2024-03-25T11:32:25;16.03;;;4.60;;
17251;SDS011;8742;51.716;8.790;2024-03-25T11:34:54;11.93;;;4.00;;
17251;SDS011;8742;51.716;8.790;2024-03-25T11:37:20;17.70;;;4.10;;
17251;SDS011;8742;51.716;8.790;2024-03-25T11:39:46;10.53;;;4.13;;
17251;SDS011;8742;51.716;8.790;2024-03-25T11:42:12;14.57;;;3.70;;
17251;SDS011;8742;51.716;8.790;2024-03-25T11:44:38;15.60;;;3.67;;
17251;SDS011;8742;51.716;8.790;2024-03-25T11:47:05;9.47;;;3.73;;
17251;SDS011;8742;51.716;8.790;2024-03-25T11:49:32;15.03;;;4.23;;
17251;SDS011;8742;51.716;8.790;2024-03-25T11:52:00;11.93;;;4.20;;
17251;SDS011;8742;51.716;8.790;2024-03-25T11:54:27;9.60;;;4.17;;
17251;SDS011;8742;51.716;8.790;2024-03-25T11:56:53;13.90;;;4.83;;
17251;SDS011;8742;51.716;8.790;2024-03-25T11:59:19;8.90;;;3.70;;
17251;SDS011;8742;51.716;8.790;2024-03-25T12:01:45;15.33;;;4.70;;
17251;SDS011;8742;51.716;8.790;2024-03-25T12:04:11;8.27;;;3.30;;
17251;SDS011;8742;51.716;8.790;2024-03-25T12:06:38;9.23;;;3.20;;
17251;SDS011;8742;51.716;8.790;2024-03-25T12:09:05;12.50;;;3.10;;
17251;SDS011;8742;51.716;8.790;2024-03-25T12:11:49;4.87;;;2.80;;
17251;SDS011;8742;51.716;8.790;2024-03-25T12:14:16;8.43;;;3.57;;
17251;SDS011;8742;51.716;8.790;2024-03-25T12:16:42;7.93;;;3.00;;
17251;SDS011;8742;51.716;8.790;2024-03-25T12:19:08;10.93;;;3.07;;
17251;SDS011;8742;51.716;8.790;2024-03-25T12:21:34;9.40;;;2.80;;
17251;SDS011;8742;51.716;8.790;2024-03-25T12:24:00;11.10;;;3.17;;
17251;SDS011;8742;51.716;8.790;2024-03-25T12:26:27;5.07;;;2.60;;
17251;SDS011;8742;51.716;8.790;2024-03-25T12:28:53;11.93;;;3.10;;
17251;SDS011;8742;51.716;8.790;2024-03-25T12:31:19;8.97;;;3.07;;
17251;SDS011;8742;51.716;8.790;2024-03-25T12:33:49;7.60;;;2.90;;
17251;SDS011;8742;51.716;8.790;2024-03-25T12:36:14;5.87;;;2.60;;
17251;SDS011;8742;51.716;8.790;2024-03-25T12:38:40;5.87;;;2.60;;
17251;SDS011;8742;51.716;8.790;2024-03-25T12:41:07;7.60;;;3.10;;
17251;SDS011;8742;51.716;8.790;2024-03-25T12:43:35;8.53;;;3.27;;
17251;SDS011;8742;51.716;8.790;2024-03-25T12:46:01;6.30;;;2.23;;
17251;SDS011;8742;51.716;8.790;2024-03-25T12:48:28;4.13;;;2.37;;
17251;SDS011;8742;51.716;8.790;2024-03-25T12:50:54;7.80;;;2.63;;
17251;SDS011;8742;51.716;8.790;2024-03-25T12:53:20;8.87;;;2.90;;
17251;SDS011;8742;51.716;8.790;2024-03-25T12:55:47;11.57;;;3.00;;
17251;SDS011;8742;51.716;8.790;2024-03-25T12:58:13;6.50;;;3.07;;
17251;SDS011;8742;51.716;8.790;2024-03-25T13:00:40;7.77;;;3.10;;
17251;SDS011;8742;51.716;8.790;2024-03-25T13:03:06;9.20;;;2.83;;
17251;SDS011;8742;51.716;8.790;2024-03-25T13:05:34;7.47;;;2.97;;
17251;SDS011;8742;51.716;8.790;2024-03-25T13:08:00;8.13;;;2.70;;
17251;SDS011;8742;51.716;8.790;2024-03-25T13:10:26;7.77;;;2.70;;
17251;SDS011;8742;51.716;8.790;2024-03-25T13:12:53;4.63;;;2.40;;
17251;SDS011;8742;51.716;8.790;2024-03-25T13:15:19;6.57;;;2.77;;
17251;SDS011;8742;51.716;8.790;2024-03-25T13:17:46;7.50;;;2.70;;
17251;SDS011;8742;51.716;8.790;2024-03-25T13:20:12;10.50;;;2.50;;
17251;SDS011;8742;51.716;8.790;2024-03-25T13:22:38;5.27;;;2.50;;
17251;SDS011;8742;51.716;8.790;2024-03-25T13:25:04;3.03;;;2.27;;
17251;SDS011;8742;51.716;8.790;2024-03-25T13:27:31;6.20;;;2.37;;
17251;SDS011;8742;51.716;8.790;2024-03-25T13:29:56;6.75;;;2.13;;
17251;SDS011;8742;51.716;8.790;2024-03-25T13:32:22;8.40;;;2.65;;
17251;SDS011;8742;51.716;8.790;2024-03-25T13:34:50;6.05;;;1.90;;
17251;SDS011;8742;51.716;8.790;2024-03-25T13:37:16;6.15;;;2.35;;
17251;SDS011;8742;51.716;8.790;2024-03-25T13:39:42;4.53;;;2.13;;
17251;SDS011;8742;51.716;8.790;2024-03-25T13:42:08;6.55;;;2.88;;
17251;SDS011;8742;51.716;8.790;2024-03-25T13:44:34;10.95;;;2.40;;
17251;SDS011;8742;51.716;8.790;2024-03-25T13:47:00;4.35;;;2.25;;
17251;SDS011;8742;51.716;8.790;2024-03-25T13:49:27;5.60;;;2.33;;
17251;SDS011;8742;51.716;8.790;2024-03-25T13:51:57;8.13;;;2.72;;
17251;SDS011;8742;51.716;8.790;2024-03-25T13:54:23;4.93;;;2.00;;
17251;SDS011;8742;51.716;8.790;2024-03-25T13:56:49;7.88;;;2.00;;
17251;SDS011;8742;51.716;8.790;2024-03-25T13:59:15;7.20;;;2.30;;
17251;SDS011;8742;51.716;8.790;2024-03-25T14:01:41;3.22;;;1.85;;
17251;SDS011;8742;51.716;8.790;2024-03-25T14:04:07;5.60;;;2.20;;
17251;SDS011;8742;51.716;8.790;2024-03-25T14:06:33;4.50;;;2.28;;
17251;SDS011;8742;51.716;8.790;2024-03-25T14:09:00;9.18;;;2.80;;
17251;SDS011;8742;51.716;8.790;2024-03-25T14:11:26;7.25;;;2.50;;
17251;SDS011;8742;51.716;8.790;2024-03-25T14:13:52;7.13;;;2.35;;
17251;SDS011;8742;51.716;8.790;2024-03-25T14:16:18;5.03;;;2.40;;
17251;SDS011;8742;51.716;8.790;2024-03-25T14:18:44;8.10;;;2.70;;
17251;SDS011;8742;51.716;8.790;2024-03-25T14:21:10;3.80;;;2.05;;
17251;SDS011;8742;51.716;8.790;2024-03-25T14:23:36;5.07;;;2.22;;
17251;SDS011;8742;51.716;8.790;2024-03-25T14:26:03;5.68;;;2.00;;
17251;SDS011;8742;51.716;8.790;2024-03-25T14:28:29;12.35;;;2.35;;
17251;SDS011;8742;51.716;8.790;2024-03-25T14:30:55;5.28;;;2.20;;
17251;SDS011;8742;51.716;8.790;2024-03-25T14:33:21;5.35;;;2.33;;
17251;SDS011;8742;51.716;8.790;2024-03-25T14:35:47;8.10;;;2.15;;
17251;SDS011;8742;51.716;8.790;2024-03-25T14:38:13;5.38;;;2.15;;
17251;SDS011;8742;51.716;8.790;2024-03-25T14:40:39;7.35;;;2.40;;
17251;SDS011;8742;51.716;8.790;2024-03-25T14:43:06;5.93;;;1.92;;
17251;SDS011;8742;51.716;8.790;2024-03-25T14:45:32;4.47;;;2.30;;
17251;SDS011;8742;51.716;8.790;2024-03-25T14:47:58;3.97;;;2.08;;
17251;SDS011;8742;51.716;8.790;2024-03-25T14:50:24;6.88;;;2.35;;